Time;durP1;ratioP1;P1;durP2;ratioP2;P2;SDS_P1;SDS_P2;PMS_P1;PMS_P2;Temp;Humidity;BMP_temperature;BMP_pressure;BME280_temperature;BME280_humidity;BME280_pressure;Samples;Min_cycle;Max_cycle;Signal;HPM_P1;HPM_P2
2023/03/30 00:03:04;;;;;;;32.92;18.23;;;11.50;92.60;;;;;;5054549;28;20167;-74
2023/03/30 00:06:09;;;;;;;34.80;18.52;;;11.30;92.60;;;;;;5054586;28;20503;-73
2023/03/30 00:09:14;;;;;;;43.45;18.65;;;;;;;;;;5053980;28;20404;-73
2023/03/30 00:12:19;;;;;;;35.42;21.48;;;11.50;92.40;;;;;;5054264;28;20044;-73
2023/03/30 00:15:24;;;;;;;33.78;20.98;;;11.20;93.00;;;;;;5053919;28;20043;-74
2023/03/30 00:18:28;;;;;;;35.13;20.70;;;11.60;92.90;;;;;;5053588;28;20048;-74
2023/03/30 00:21:33;;;;;;;34.83;21.60;;;10.90;92.80;;;;;;5054116;28;20045;-74
2023/03/30 00:24:38;;;;;;;42.45;22.25;;;11.10;93.40;;;;;;5053631;28;20056;-74
2023/03/30 00:27:43;;;;;;;37.78;22.88;;;11.10;93.60;;;;;;5053400;28;20048;-74
2023/03/30 00:30:49;;;;;;;35.00;21.67;;;11.40;93.50;;;;;;5053091;28;20052;-74
2023/03/30 00:33:53;;;;;;;34.63;21.67;;;;;;;;;;5053654;28;20044;-74
2023/03/30 00:36:57;;;;;;;37.05;21.42;;;11.20;93.40;;;;;;5053624;28;20059;-74
2023/03/30 00:40:03;;;;;;;31.58;22.80;;;12.20;93.60;;;;;;5053791;28;20057;-74
2023/03/30 00:43:10;;;;;;;35.88;21.48;;;11.40;93.90;;;;;;5052377;28;20412;-74
2023/03/30 00:46:14;;;;;;;36.13;21.73;;;10.70;93.70;;;;;;5053183;28;20048;-74
2023/03/30 00:49:20;;;;;;;32.95;22.23;;;12.00;93.90;;;;;;5052004;28;20048;-74
2023/03/30 00:52:24;;;;;;;33.97;22.05;;;11.10;93.70;;;;;;5053176;28;20052;-74
2023/03/30 00:55:31;;;;;;;32.10;21.58;;;10.80;94.10;;;;;;5051746;28;20056;-74
2023/03/30 00:58:36;;;;;;;34.80;21.52;;;11.20;94.20;;;;;;5052673;28;20500;-74
2023/03/30 01:01:40;;;;;;;34.00;21.13;;;11.10;94.00;;;;;;5053218;28;20043;-74
2023/03/30 01:04:46;;;;;;;32.88;20.85;;;10.80;94.00;;;;;;5053253;28;20040;-74
2023/03/30 01:07:51;;;;;;;29.08;19.88;;;11.20;94.10;;;;;;5052970;28;20052;-73
2023/03/30 01:10:55;;;;;;;34.58;21.05;;;11.00;94.00;;;;;;5053290;28;20059;-74
2023/03/30 01:14:04;;;;;;;36.83;19.10;;;11.00;94.30;;;;;;5052826;28;20491;-74
2023/03/30 01:17:33;;;;;;;32.53;20.85;;;10.80;94.50;;;;;;5052771;28;20039;-74
2023/03/30 01:20:56;;;;;;;33.70;20.15;;;11.00;94.80;;;;;;5053030;28;20516;-74
2023/03/30 01:24:14;;;;;;;33.08;20.08;;;11.00;94.50;;;;;;5052562;28;20064;-74
2023/03/30 01:27:44;;;;;;;31.30;19.33;;;11.90;94.60;;;;;;5051896;28;20047;-74
2023/03/30 01:31:24;;;;;;;31.17;19.70;;;11.40;94.30;;;;;;5051617;28;20056;-74
2023/03/30 01:34:31;;;;;;;29.98;19.02;;;11.40;94.00;;;;;;5052670;28;20044;-74
2023/03/30 01:37:46;;;;;;;30.42;19.20;;;11.30;94.10;;;;;;5053451;28;20044;-74
2023/03/30 01:40:59;;;;;;;32.90;19.63;;;11.40;94.10;;;;;;5052212;28;20504;-74
2023/03/30 01:44:28;;;;;;;29.27;19.05;;;11.70;94.30;;;;;;5052882;28;20039;-75
2023/03/30 01:47:46;;;;;;;30.65;18.42;;;12.40;94.50;;;;;;5052472;28;20048;-74
2023/03/30 01:50:55;;;;;;;28.75;18.73;;;11.40;94.00;;;;;;5052076;28;20048;-74
2023/03/30 01:54:12;;;;;;;35.70;20.00;;;11.60;94.20;;;;;;5051335;28;20043;-75
2023/03/30 01:57:28;;;;;;;30.65;19.00;;;11.40;94.10;;;;;;5051908;28;20055;-74
2023/03/30 02:00:35;;;;;;;29.52;18.70;;;11.40;94.20;;;;;;5050942;28;20044;-74
2023/03/30 02:03:42;;;;;;;28.95;19.40;;;10.20;93.70;;;;;;5051182;28;20037;-74
2023/03/30 02:06:58;;;;;;;34.55;19.70;;;11.40;94.00;;;;;;5051002;28;20405;-74
2023/03/30 02:10:05;;;;;;;26.08;18.13;;;11.40;94.00;;;;;;5050894;28;20051;-74
2023/03/30 02:13:13;;;;;;;29.40;18.48;;;11.50;94.30;;;;;;5051170;28;20048;-74
2023/03/30 02:16:25;;;;;;;31.05;18.83;;;12.10;94.40;;;;;;5051009;28;20043;-75
2023/03/30 02:19:30;;;;;;;31.95;19.13;;;11.30;94.30;;;;;;5051960;28;20178;-74
2023/03/30 02:22:34;;;;;;;30.58;19.25;;;11.20;94.50;;;;;;5052195;28;20507;-74
2023/03/30 02:25:38;;;;;;;30.05;20.20;;;11.30;94.30;;;;;;5012264;28;20124;-73
2023/03/30 02:28:43;;;;;;;35.95;19.02;;;11.20;95.00;;;;;;5012118;28;20132;-74
2023/03/30 02:31:49;;;;;;;30.27;19.02;;;10.90;94.80;;;;;;5012157;28;20533;-73
2023/03/30 02:34:57;;;;;;;30.83;19.73;;;;;;;;;;5011467;28;20045;-73
2023/03/30 02:38:22;;;;;;;33.78;19.50;;;11.10;95.30;;;;;;5011608;28;20049;-74
2023/03/30 02:41:41;;;;;;;31.80;19.48;;;11.10;95.30;;;;;;5011304;28;20045;-74
2023/03/30 02:44:55;;;;;;;28.50;18.25;;;11.40;95.10;;;;;;5011318;28;20056;-74
2023/03/30 02:48:11;;;;;;;35.28;19.05;;;11.20;94.90;;;;;;5010656;28;20065;-74
2023/03/30 02:51:38;;;;;;;27.67;17.48;;;11.30;95.20;;;;;;5010518;28;20520;-74
2023/03/30 02:55:00;;;;;;;32.63;18.88;;;11.20;95.00;;;;;;5011926;28;20501;-74
2023/03/30 02:58:38;;;;;;;32.33;18.88;;;11.20;94.70;;;;;;5011655;28;20056;-74
2023/03/30 03:01:59;;;;;;;31.65;19.00;;;11.50;95.00;;;;;;5011724;28;20041;-74
2023/03/30 03:05:03;;;;;;;34.72;20.02;;;12.00;95.30;;;;;;5010974;28;20045;-74
2023/03/30 03:08:34;;;;;;;27.30;17.95;;;10.90;94.90;;;;;;5013880;28;20045;-74
2023/03/30 03:11:39;;;;;;;32.05;18.58;;;;;;;;;;5010902;28;20509;-74
2023/03/30 03:14:44;;;;;;;28.95;18.42;;;11.00;95.30;;;;;;5011102;28;20041;-74
2023/03/30 03:17:50;;;;;;;34.53;19.50;;;11.10;95.20;;;;;;5011829;28;20048;-74
2023/03/30 03:20:54;;;;;;;28.50;17.98;;;11.10;95.40;;;;;;5014576;28;20390;-74
2023/03/30 03:24:00;;;;;;;28.63;17.30;;;11.10;95.10;;;;;;5030656;28;20154;-74
2023/03/30 03:27:24;;;;;;;26.25;16.55;;;12.00;95.60;;;;;;5055004;28;20051;-74
2023/03/30 03:30:52;;;;;;;25.10;16.27;;;;;;;;;;5055787;28;20397;-74
2023/03/30 03:33:59;;;;;;;26.83;15.90;;;10.90;95.80;;;;;;5054494;28;20055;-74
2023/03/30 03:37:21;;;;;;;26.30;16.48;;;11.20;95.70;;;;;;5053905;28;20052;-74
2023/03/30 03:40:25;;;;;;;28.33;15.88;;;11.00;95.50;;;;;;5054589;28;20055;-74
2023/03/30 03:43:30;;;;;;;24.48;15.32;;;11.10;95.30;;;;;;5053647;28;20044;-74
2023/03/30 03:46:34;;;;;;;23.90;15.05;;;11.00;95.40;;;;;;5053793;28;20048;-74
2023/03/30 03:49:38;;;;;;;28.92;15.38;;;11.10;95.40;;;;;;5054230;28;20055;-74
2023/03/30 03:52:42;;;;;;;26.05;14.48;;;11.00;95.30;;;;;;5042038;28;20040;-74
2023/03/30 03:55:46;;;;;;;22.10;14.57;;;10.40;95.00;;;;;;5053084;28;20048;-74
2023/03/30 03:58:50;;;;;;;26.42;15.13;;;11.10;95.20;;;;;;5053265;28;20036;-74
2023/03/30 04:01:55;;;;;;;21.85;14.15;;;11.10;95.10;;;;;;5053827;28;20409;-73
2023/03/30 04:05:00;;;;;;;23.90;14.75;;;10.90;95.30;;;;;;5054291;28;20048;-74
2023/03/30 04:08:09;;;;;;;29.58;14.77;;;10.80;95.20;;;;;;5053071;28;20155;-73
2023/03/30 04:11:13;;;;;;;22.13;14.02;;;9.70;95.30;;;;;;5053318;28;20094;-73
2023/03/30 04:14:33;;;;;;;28.95;14.48;;;10.60;95.70;;;;;;5054069;28;20075;-73
2023/03/30 04:17:59;;;;;;;22.95;14.10;;;10.50;95.80;;;;;;5053868;28;20047;-74
2023/03/30 04:21:31;;;;;;;23.80;14.27;;;10.80;96.10;;;;;;5050294;28;20052;-74
2023/03/30 04:24:43;;;;;;;23.38;13.55;;;10.90;96.40;;;;;;5053745;28;20151;-74
2023/03/30 04:28:06;;;;;;;25.42;14.25;;;10.50;95.80;;;;;;5053262;28;20044;-74
2023/03/30 04:31:22;;;;;;;21.55;14.88;;;;;;;;;;5053030;28;20412;-75
2023/03/30 04:34:44;;;;;;;25.65;14.77;;;10.30;96.10;;;;;;5052955;28;20040;-74
2023/03/30 04:38:21;;;;;;;31.20;14.35;;;10.50;95.90;;;;;;5039945;28;20040;-74
2023/03/30 04:41:44;;;;;;;25.38;14.70;;;10.60;96.30;;;;;;5057467;28;20580;-73
2023/03/30 04:45:05;;;;;;;;;;;;;;;;;;5056310;28;20044;-73
2023/03/30 04:48:27;;;;;;;35.53;14.05;;;10.40;96.40;;;;;;5053408;28;19924;-74
2023/03/30 04:52:17;;;;;;;44.10;16.83;;;10.50;96.40;;;;;;5052362;28;20044;-74
2023/03/30 04:55:56;;;;;;;22.10;12.98;;;9.50;96.10;;;;;;5052106;28;20052;-74
2023/03/30 04:59:32;;;;;;;64.13;17.77;;;9.60;96.10;;;;;;5053600;28;20060;-74
2023/03/30 05:02:44;;;;;;;36.45;14.02;;;10.50;96.30;;;;;;5054334;28;20052;-73
2023/03/30 05:06:02;;;;;;;37.47;14.13;;;10.60;96.40;;;;;;5053372;28;20040;-74
2023/03/30 05:09:22;;;;;;;48.38;16.05;;;10.60;96.60;;;;;;5053038;28;20052;-75
2023/03/30 05:12:44;;;;;;;31.05;12.90;;;10.60;96.50;;;;;;5053963;28;20048;-74
2023/03/30 05:16:15;;;;;;;32.72;12.77;;;11.10;96.20;;;;;;5054528;28;20052;-73
2023/03/30 05:19:43;;;;;;;34.15;11.70;;;11.00;96.50;;;;;;5051759;28;20040;-61
2023/03/30 05:22:58;;;;;;;26.38;8.57;;;;;;;;;;5049433;28;20044;-63
2023/03/30 05:26:27;;;;;;;24.95;8.05;;;11.10;95.90;;;;;;5051273;28;20045;-62
2023/03/30 05:29:57;;;;;;;39.58;8.77;;;12.50;96.10;;;;;;5051176;28;20060;-62
2023/03/30 05:33:01;;;;;;;37.50;8.98;;;11.50;96.00;;;;;;5050520;28;20044;-61
2023/03/30 05:36:34;;;;;;;36.03;7.70;;;;;;;;;;5051429;28;20056;-61
2023/03/30 05:39:44;;;;;;;24.88;6.18;;;12.00;95.10;;;;;;5050158;28;20036;-62
2023/03/30 05:42:58;;;;;;;23.58;7.53;;;12.10;94.90;;;;;;5050808;28;20047;-62
2023/03/30 05:46:20;;;;;;;55.95;8.82;;;12.60;94.70;;;;;;5050719;28;20405;-62
2023/03/30 05:49:42;;;;;;;27.92;8.00;;;13.00;93.80;;;;;;5051034;28;20531;-62
2023/03/30 05:52:55;;;;;;;55.45;9.93;;;;;;;;;;5051445;28;20048;-61
2023/03/30 05:56:34;;;;;;;19.17;7.60;;;;;;;;;;5051062;28;20044;-61
2023/03/30 06:00:09;;;;;;;56.38;10.30;;;14.10;91.30;;;;;;5051224;28;20033;-62
2023/03/30 06:03:23;;;;;;;33.72;8.73;;;16.60;92.10;;;;;;5050291;28;20052;-61
2023/03/30 06:06:28;;;;;;;24.27;8.20;;;;;;;;;;5038674;28;20503;-62
2023/03/30 06:09:33;;;;;;;26.23;8.65;;;;;;;;;;5050251;28;20045;-61
2023/03/30 06:12:41;;;;;;;37.95;9.73;;;;;;;;;;5050400;28;20397;-61
2023/03/30 06:15:56;;;;;;;31.85;9.93;;;16.50;92.30;;;;;;5050324;28;20068;-63
2023/03/30 06:19:03;;;;;;;31.58;10.18;;;14.30;91.90;;;;;;5049813;28;20040;-62
2023/03/30 06:22:08;;;;;;;30.20;9.40;;;14.20;92.10;;;;;;5050294;28;20059;-62
2023/03/30 06:25:23;;;;;;;30.00;9.68;;;14.50;91.80;;;;;;5050087;28;20055;-62
2023/03/30 06:28:30;;;;;;;22.52;9.35;;;14.50;92.00;;;;;;5049880;28;20067;-62
2023/03/30 06:31:35;;;;;;;22.42;10.32;;;14.50;92.20;;;;;;5050080;28;20547;-62
2023/03/30 06:35:09;;;;;;;24.27;9.85;;;14.60;91.80;;;;;;5050819;28;20060;-62
2023/03/30 06:38:14;;;;;;;18.15;9.00;;;14.50;92.00;;;;;;5050037;28;20393;-62
2023/03/30 06:41:18;;;;;;;25.45;9.77;;;13.90;92.30;;;;;;5038426;28;20040;-62
2023/03/30 06:44:24;;;;;;;22.90;8.95;;;14.00;92.60;;;;;;5050024;28;20093;-61
2023/03/30 06:47:28;;;;;;;22.92;9.57;;;14.20;93.00;;;;;;5049666;28;20113;-62
2023/03/30 06:50:35;;;;;;;23.92;8.93;;;14.50;92.40;;;;;;5049609;28;20071;-61
2023/03/30 06:53:49;;;;;;;17.63;8.50;;;14.70;92.10;;;;;;5054224;28;20397;-62
2023/03/30 06:56:53;;;;;;;27.45;9.70;;;14.80;92.40;;;;;;5053793;28;20048;-62
2023/03/30 06:59:57;;;;;;;28.00;7.70;;;14.90;92.60;;;;;;5054637;28;20040;-62
2023/03/30 07:03:20;;;;;;;18.88;7.30;;;14.80;92.20;;;;;;5053577;28;20043;-62
2023/03/30 07:06:34;;;;;;;16.63;6.97;;;15.00;92.40;;;;;;5053674;28;20551;-60
2023/03/30 07:09:38;;;;;;;38.10;8.00;;;15.20;91.90;;;;;;5053714;28;20534;-61
2023/03/30 07:12:44;;;;;;;23.15;6.68;;;15.50;92.20;;;;;;5042682;28;20397;-60
2023/03/30 07:15:51;;;;;;;12.45;6.10;;;15.70;91.50;;;;;;5053576;28;20048;-61
2023/03/30 07:18:54;;;;;;;19.20;7.38;;;15.70;91.40;;;;;;5053957;28;20056;-62
2023/03/30 07:21:58;;;;;;;20.83;6.20;;;15.90;91.30;;;;;;5053424;28;20036;-61
2023/03/30 07:25:04;;;;;;;13.35;4.82;;;16.10;91.20;;;;;;5053119;28;20067;-60
2023/03/30 07:28:08;;;;;;;23.80;5.35;;;16.20;91.00;;;;;;5054516;28;20044;-61
2023/03/30 07:31:13;;;;;;;15.70;4.22;;;16.10;90.70;;;;;;5053367;28;20040;-61
2023/03/30 07:34:19;;;;;;;23.13;5.40;;;16.10;91.10;;;;;;5053221;28;20052;-61
2023/03/30 07:37:30;;;;;;;11.45;4.50;;;16.10;90.90;;;;;;5052763;28;20060;-61
2023/03/30 07:40:34;;;;;;;21.83;4.45;;;16.10;91.00;;;;;;5053316;28;20044;-61
2023/03/30 07:43:40;;;;;;;37.50;5.45;;;16.30;91.00;;;;;;5053298;28;20056;-62
2023/03/30 07:46:45;;;;;;;13.02;4.32;;;16.30;90.70;;;;;;5053592;28;20052;-61
2023/03/30 07:49:55;;;;;;;20.53;4.67;;;16.10;90.70;;;;;;5052738;28;20665;-61
2023/03/30 07:53:01;;;;;;;24.42;5.57;;;15.00;90.50;;;;;;5052725;28;20203;-61
2023/03/30 07:56:05;;;;;;;30.55;7.22;;;12.70;96.30;;;;;;5053011;28;20047;-61
2023/03/30 07:59:20;;;;;;;48.70;6.80;;;12.70;97.20;;;;;;5052591;28;20048;-60
2023/03/30 08:02:26;;;;;;;15.68;4.50;;;;;;;;;;5052862;28;20056;-60
2023/03/30 08:05:32;;;;;;;22.42;5.57;;;;;;;;;;5052935;28;20032;-61
2023/03/30 08:08:46;;;;;;;34.38;3.97;;;;;;;;;;5052519;28;20080;-61
2023/03/30 08:11:51;;;;;;;10.98;2.88;;;;;;;;;;5040967;28;20037;-60
2023/03/30 08:14:55;;;;;;;18.40;4.00;;;;;;;;;;5053076;28;20040;-62
2023/03/30 08:18:03;;;;;;;25.35;5.10;;;;;;;;;;5052919;28;20045;-60
2023/03/30 08:21:08;;;;;;;23.75;2.88;;;;;;;;;;5053076;28;20052;-60
2023/03/30 08:24:11;;;;;;;11.93;3.90;;;;;;;;;;5052835;28;20048;-61
2023/03/30 08:27:16;;;;;;;12.13;2.50;;;;;;;;;;5052668;28;20041;-61
2023/03/30 08:30:20;;;;;;;26.70;3.10;;;12.80;98.30;;;;;;5052061;28;20044;-62
2023/03/30 08:33:23;;;;;;;29.05;4.40;;;12.70;98.30;;;;;;5052804;28;20100;-61
2023/03/30 08:36:28;;;;;;;13.88;2.72;;;;;;;;;;5052891;28;20044;-61
2023/03/30 08:39:32;;;;;;;15.15;2.70;;;;;;;;;;5052704;28;20041;-60
2023/03/30 08:42:50;;;;;;;10.32;2.00;;;13.20;97.10;;;;;;5040294;28;20040;-62
2023/03/30 08:45:59;;;;;;;5.55;1.98;;;13.10;96.00;;;;;;5052810;28;20052;-60
2023/03/30 08:49:10;;;;;;;27.55;2.78;;;13.00;96.70;;;;;;5052421;28;20048;-62
2023/03/30 08:52:22;;;;;;;9.48;1.83;;;11.40;96.40;;;;;;5052757;28;20063;-62
2023/03/30 08:55:52;;;;;;;7.50;1.80;;;15.00;96.70;;;;;;5052333;28;20507;-61
2023/03/30 08:59:15;;;;;;;7.47;1.83;;;13.90;95.60;;;;;;5052382;28;20051;-60
2023/03/30 09:02:29;;;;;;;6.13;1.65;;;13.30;95.90;;;;;;5052369;28;20385;-61
2023/03/30 09:05:37;;;;;;;17.50;2.22;;;13.50;96.20;;;;;;5052335;28;20049;-62
2023/03/30 09:08:42;;;;;;;19.17;3.05;;;;;;;;;;5052256;28;20044;-62
2023/03/30 09:11:52;;;;;;;14.63;2.17;;;13.90;95.90;;;;;;5052056;28;20037;-61
2023/03/30 09:15:16;;;;;;;13.80;2.03;;;14.30;95.80;;;;;;5051234;28;20040;-61
2023/03/30 09:18:28;;;;;;;21.63;3.40;;;14.00;95.30;;;;;;5051640;28;20059;-62
2023/03/30 09:21:32;;;;;;;13.55;3.03;;;11.80;94.80;;;;;;5052144;28;20048;-61
2023/03/30 09:24:36;;;;;;;18.40;2.80;;;;;;;;;;5051820;28;20056;-60
2023/03/30 09:27:54;;;;;;;19.33;2.92;;;14.40;94.70;;;;;;5051075;28;20033;-61
2023/03/30 09:31:13;;;;;;;12.90;2.03;;;14.10;94.10;;;;;;5051967;28;20056;-60
2023/03/30 09:34:45;;;;;;;23.20;3.05;;;12.10;94.10;;;;;;5051528;28;20039;-60
2023/03/30 09:37:48;;;;;;;;;;;14.50;94.90;;;;;;5051706;28;20056;-60
2023/03/30 09:41:06;;;;;;;51.78;5.88;;;14.50;93.70;;;;;;5051816;28;20281;-60
2023/03/30 09:44:22;;;;;;;20.35;2.67;;;14.40;93.20;;;;;;5051749;28;20052;-61
2023/03/30 09:47:38;;;;;;;16.75;3.20;;;14.10;93.90;;;;;;5051512;28;20133;-61
2023/03/30 09:50:44;;;;;;;32.35;3.67;;;12.70;93.80;;;;;;5051462;28;20052;-62
2023/03/30 09:53:56;;;;;;;14.77;2.30;;;14.20;93.30;;;;;;5051285;28;20048;-62
2023/03/30 09:57:01;;;;;;;21.08;2.42;;;;;;;;;;5051281;28;20047;-61
2023/03/30 10:00:32;;;;;;;30.48;3.60;;;14.00;93.70;;;;;;5051143;28;20036;-62
2023/03/30 10:03:37;;;;;;;10.52;2.20;;;;;;;;;;5051373;28;20067;-62
2023/03/30 10:06:47;;;;;;;11.73;2.17;;;14.60;94.60;;;;;;5051113;28;20524;-61
2023/03/30 10:09:52;;;;;;;17.33;6.88;;;;;;;;;;5050317;28;20401;-61
2023/03/30 10:13:18;;;;;;;34.38;3.35;;;16.30;93.90;;;;;;5050949;28;20041;-61
2023/03/30 10:16:28;;;;;;;44.55;4.47;;;14.60;93.90;;;;;;5051286;28;20048;-60
2023/03/30 10:19:33;;;;;;;6.70;1.90;;;14.70;93.30;;;;;;5050276;28;20044;-62
2023/03/30 10:22:52;;;;;;;11.80;2.45;;;14.70;94.10;;;;;;5051343;28;20040;-65
2023/03/30 10:26:01;;;;;;;8.80;1.77;;;14.40;94.10;;;;;;5050675;28;20052;-61
2023/03/30 10:29:09;;;;;;;5.80;1.98;;;15.10;94.60;;;;;;5050705;28;20516;-61
2023/03/30 10:32:19;;;;;;;22.20;3.25;;;15.00;94.70;;;;;;5050859;28;20417;-60
2023/03/30 10:35:26;;;;;;;8.45;2.15;;;15.70;93.60;;;;;;5050472;28;20059;-58
2023/03/30 10:38:32;;;;;;;27.23;2.65;;;16.40;91.90;;;;;;5050648;28;20036;-57
2023/03/30 10:41:38;;;;;;;15.38;1.85;;;16.90;90.90;;;;;;5050911;28;20071;-58
2023/03/30 10:44:48;;;;;;;14.18;2.03;;;17.10;89.90;;;;;;5050679;28;20409;-58
2023/03/30 10:48:04;;;;;;;5.57;2.30;;;17.30;89.60;;;;;;5050661;28;20210;-58
2023/03/30 10:51:33;;;;;;;31.48;3.35;;;17.40;90.10;;;;;;5050333;28;20052;-58
2023/03/30 10:55:02;;;;;;;8.57;2.53;;;17.50;89.00;;;;;;5050428;28;20044;-59
2023/03/30 10:58:21;;;;;;;51.83;4.47;;;17.50;88.90;;;;;;5050517;28;20666;-59
2023/03/30 11:01:28;;;;;;;15.02;2.53;;;17.60;89.00;;;;;;5050629;28;20056;-58
2023/03/30 11:04:45;;;;;;;9.43;2.22;;;17.50;89.40;;;;;;5049875;28;20044;-59
2023/03/30 11:08:11;;;;;;;7.53;2.08;;;17.60;89.60;;;;;;5050509;28;20043;-59
2023/03/30 11:11:41;;;;;;;16.17;2.47;;;17.70;88.50;;;;;;5049632;28;20060;-59
2023/03/30 11:14:54;;;;;;;16.60;3.17;;;17.80;87.50;;;;;;5050137;28;20036;-59
2023/03/30 11:18:09;;;;;;;4.47;1.45;;;17.90;87.30;;;;;;5049659;28;20048;-59
2023/03/30 11:21:45;;;;;;;12.43;1.80;;;17.90;87.70;;;;;;5049516;28;20192;-59
2023/03/30 11:24:50;;;;;;;36.17;3.05;;;17.80;87.80;;;;;;5049942;28;20056;-58
2023/03/30 11:28:05;;;;;;;53.35;8.43;;;17.80;87.80;;;;;;5050252;28;20044;-59
2023/03/30 11:31:34;;;;;;;14.77;2.20;;;17.80;88.40;;;;;;5050170;28;20519;-58
2023/03/30 11:34:56;;;;;;;24.17;3.35;;;17.90;88.80;;;;;;5050215;28;20040;-57
2023/03/30 11:38:11;;;;;;;13.75;2.05;;;17.90;88.10;;;;;;5050110;28;20555;-59
2023/03/30 11:41:36;;;;;;;12.23;2.53;;;18.10;88.30;;;;;;5053576;28;20063;-58
2023/03/30 11:44:41;;;;;;;13.82;2.38;;;18.20;88.10;;;;;;5053546;28;20044;-59
2023/03/30 11:47:53;;;;;;;8.20;1.88;;;18.20;88.50;;;;;;5053596;28;20507;-59
2023/03/30 11:51:18;;;;;;;20.80;3.72;;;18.20;88.00;;;;;;5052456;28;20059;-59
2023/03/30 11:54:46;;;;;;;8.25;2.20;;;18.30;88.00;;;;;;5053316;28;20680;-58
2023/03/30 11:58:15;;;;;;;27.17;3.30;;;18.30;87.80;;;;;;5053167;28;20044;-59
2023/03/30 12:01:38;;;;;;;11.35;2.50;;;18.40;87.60;;;;;;5051899;28;20140;-59
2023/03/30 12:04:51;;;;;;;9.88;2.50;;;18.40;87.30;;;;;;5051427;28;20051;-59
2023/03/30 12:08:15;;;;;;;12.15;1.85;;;18.40;87.90;;;;;;5052089;28;20052;-58
2023/03/30 12:11:19;;;;;;;17.90;2.45;;;18.40;87.70;;;;;;5052381;28;20071;-58
2023/03/30 12:14:34;;;;;;;18.35;2.53;;;18.30;87.40;;;;;;5052065;28;20036;-59
2023/03/30 12:17:39;;;;;;;35.78;3.33;;;18.20;87.70;;;;;;5052722;28;20495;-59
2023/03/30 12:21:01;;;;;;;9.60;1.60;;;18.20;88.10;;;;;;5053127;28;20040;-58
2023/03/30 12:24:08;;;;;;;8.32;1.40;;;18.10;88.30;;;;;;5052687;28;20119;-59
2023/03/30 12:27:13;;;;;;;11.52;1.77;;;18.20;88.60;;;;;;5052744;28;20044;-59
2023/03/30 12:30:25;;;;;;;20.40;2.92;;;18.30;88.50;;;;;;5052791;28;20051;-59
2023/03/30 12:33:45;;;;;;;10.20;2.03;;;18.40;87.50;;;;;;5052901;28;20044;-58
2023/03/30 12:37:04;;;;;;;10.20;1.60;;;18.50;87.90;;;;;;5052649;28;20393;-57
2023/03/30 12:40:21;;;;;;;41.60;4.22;;;18.50;87.40;;;;;;5052490;28;20040;-58
2023/03/30 12:43:48;;;;;;;10.55;2.38;;;18.60;87.70;;;;;;5052781;28;20063;-59
2023/03/30 12:47:03;;;;;;;12.13;2.28;;;18.60;88.00;;;;;;5052262;28;20056;-60
2023/03/30 12:50:07;;;;;;;10.55;2.47;;;18.70;87.10;;;;;;5051411;28;20052;-60
2023/03/30 12:53:35;;;;;;;8.88;1.65;;;18.70;87.00;;;;;;5051895;28;20535;-59
2023/03/30 12:57:33;;;;;;;8.95;1.73;;;18.80;87.30;;;;;;5051452;28;20146;-60
2023/03/30 13:01:19;;;;;;;20.33;2.90;;;18.80;87.40;;;;;;5049627;28;20040;-61
2023/03/30 13:04:33;;;;;;;14.50;2.33;;;18.80;87.50;;;;;;5050716;28;20488;-59
2023/03/30 13:07:38;;;;;;;11.77;2.80;;;18.80;86.80;;;;;;5052021;28;20039;-60
2023/03/30 13:10:42;;;;;;;11.20;1.98;;;18.90;87.00;;;;;;5051501;28;20055;-60
2023/03/30 13:14:13;;;;;;;5.68;1.65;;;18.90;86.60;;;;;;5052076;28;20096;-59
2023/03/30 13:17:19;;;;;;;9.43;2.25;;;18.90;86.30;;;;;;5051069;28;20056;-60
2023/03/30 13:20:35;;;;;;;30.85;3.10;;;18.90;86.20;;;;;;5051967;28;20036;-60
2023/03/30 13:23:42;;;;;;;14.25;1.70;;;18.90;85.70;;;;;;5051632;28;20064;-61
2023/03/30 13:26:46;;;;;;;12.85;1.85;;;18.90;85.30;;;;;;5051741;28;20064;-60
2023/03/30 13:30:01;;;;;;;12.23;2.28;;;18.90;85.20;;;;;;5051690;28;20055;-59
2023/03/30 13:33:20;;;;;;;25.20;2.53;;;18.90;85.30;;;;;;5051610;28;20052;-60
2023/03/30 13:36:31;;;;;;;7.68;1.85;;;18.90;85.30;;;;;;5051919;28;20048;-59
2023/03/30 13:39:41;;;;;;;16.80;2.58;;;18.90;85.90;;;;;;5051664;28;20048;-59
2023/03/30 13:42:52;;;;;;;35.92;23.13;;;18.90;86.30;;;;;;5051738;28;20384;-62
2023/03/30 13:46:14;;;;;;;23.77;11.03;;;18.90;88.30;;;;;;5051648;28;20040;-60
2023/03/30 13:49:31;;;;;;;16.50;3.17;;;18.90;88.40;;;;;;5050861;28;20504;-60
2023/03/30 13:52:41;;;;;;;12.18;2.00;;;18.80;86.80;;;;;;5051271;28;20056;-59
2023/03/30 13:55:47;;;;;;;12.73;1.83;;;18.80;86.90;;;;;;5051184;28;20036;-60
2023/03/30 13:59:14;;;;;;;10.43;1.85;;;18.70;86.30;;;;;;5051025;28;20056;-60
2023/03/30 14:02:21;;;;;;;10.63;1.65;;;18.70;87.10;;;;;;5050492;28;20040;-59
2023/03/30 14:05:26;;;;;;;20.60;2.22;;;18.70;86.50;;;;;;5050916;28;20047;-60
2023/03/30 14:08:34;;;;;;;15.10;1.70;;;18.70;86.20;;;;;;5050043;28;20044;-59
2023/03/30 14:11:52;;;;;;;8.13;1.65;;;18.60;86.20;;;;;;5051166;28;20056;-59
2023/03/30 14:14:56;;;;;;;8.52;1.20;;;18.60;86.00;;;;;;5050869;28;20052;-59
2023/03/30 14:18:01;;;;;;;14.68;2.10;;;18.50;86.50;;;;;;5050875;28;20074;-60
2023/03/30 14:21:13;;;;;;;8.57;1.85;;;18.50;87.10;;;;;;5050805;28;20468;-60
2023/03/30 14:24:25;;;;;;;10.40;2.08;;;18.50;87.10;;;;;;5049828;28;20056;-60
2023/03/30 14:27:34;;;;;;;;;;;18.50;87.00;;;;;;5050962;28;20385;-60
2023/03/30 14:30:46;;;;;;;10.32;2.05;;;18.40;87.10;;;;;;5049712;28;20285;-60
2023/03/30 14:33:50;;;;;;;11.48;2.80;;;18.40;87.30;;;;;;5050480;28;20048;-59
2023/03/30 14:36:59;;;;;;;14.48;2.17;;;18.40;87.60;;;;;;5050513;28;20048;-60
2023/03/30 14:40:11;;;;;;;29.10;2.85;;;18.50;87.90;;;;;;5050444;28;20044;-58
2023/03/30 14:43:23;;;;;;;16.58;2.92;;;18.40;88.70;;;;;;5050282;28;20044;-59
2023/03/30 14:46:38;;;;;;;12.35;2.60;;;18.40;88.90;;;;;;5050465;28;20128;-59
2023/03/30 14:49:46;;;;;;;15.98;2.30;;;18.40;89.00;;;;;;5050462;28;20060;-60
2023/03/30 14:52:51;;;;;;;9.43;2.30;;;18.30;89.60;;;;;;5050387;28;20044;-58
2023/03/30 14:55:59;;;;;;;18.23;2.70;;;18.30;89.60;;;;;;5050704;28;20060;-58
2023/03/30 14:59:05;;;;;;;28.48;3.53;;;18.30;89.80;;;;;;5050520;28;20056;-59
2023/03/30 15:02:24;;;;;;;13.60;2.30;;;18.30;90.10;;;;;;5050370;28;20040;-59
2023/03/30 15:05:36;;;;;;;13.13;3.15;;;18.30;90.20;;;;;;5050287;28;20107;-59
2023/03/30 15:08:45;;;;;;;17.00;4.65;;;18.20;90.20;;;;;;5050699;28;20055;-58
2023/03/30 15:11:58;;;;;;;27.52;4.88;;;18.30;90.30;;;;;;5049670;28;20064;-62
2023/03/30 15:15:06;;;;;;;18.85;3.00;;;18.30;90.10;;;;;;5053478;28;20048;-59
2023/03/30 15:18:19;;;;;;;15.70;3.60;;;18.30;90.00;;;;;;5054438;28;20068;-60
2023/03/30 15:21:23;;;;;;;27.77;5.72;;;18.30;90.00;;;;;;5054112;28;20504;-58
2023/03/30 15:24:33;;;;;;;29.02;5.00;;;18.30;89.80;;;;;;5054125;28;20072;-58
2023/03/30 15:27:38;;;;;;;;;;;18.30;89.70;;;;;;5054413;28;20064;-60
2023/03/30 15:30:43;;;;;;;26.17;6.43;;;18.30;89.20;;;;;;5053888;28;19924;-58
2023/03/30 15:33:53;;;;;;;12.27;2.80;;;18.30;89.40;;;;;;5053785;28;20044;-58
2023/03/30 15:36:57;;;;;;;12.63;2.90;;;18.20;89.60;;;;;;5053745;28;20052;-59
2023/03/30 15:40:24;;;;;;;29.70;3.38;;;18.20;89.50;;;;;;5053742;28;20724;-59
2023/03/30 15:43:32;;;;;;;26.52;4.20;;;18.10;90.00;;;;;;5054061;28;20064;-70
2023/03/30 15:46:37;;;;;;;16.98;2.88;;;18.10;90.30;;;;;;5053991;28;20507;-68
2023/03/30 15:49:45;;;;;;;18.20;2.17;;;18.10;91.10;;;;;;5053954;28;20044;-68
2023/03/30 15:53:00;;;;;;;20.70;3.20;;;18.10;90.10;;;;;;5053756;28;20357;-68
2023/03/30 15:56:11;;;;;;;101.15;9.73;;;18.00;90.10;;;;;;5053882;28;20496;-68
2023/03/30 15:59:19;;;;;;;25.58;3.50;;;17.90;90.30;;;;;;5054189;28;20040;-68
2023/03/30 16:02:35;;;;;;;22.92;3.28;;;17.90;90.60;;;;;;5053823;28;20043;-68
2023/03/30 16:05:42;;;;;;;55.75;6.13;;;17.80;90.70;;;;;;5053528;28;20036;-68
2023/03/30 16:08:46;;;;;;;61.50;4.72;;;17.80;90.90;;;;;;5053677;28;20044;-67
2023/03/30 16:11:53;;;;;;;72.57;6.50;;;17.70;91.20;;;;;;5053388;28;20056;-69
2023/03/30 16:14:58;;;;;;;44.00;4.95;;;17.60;91.60;;;;;;5041558;28;20044;-69
2023/03/30 16:18:01;;;;;;;29.92;3.75;;;17.60;91.80;;;;;;5053595;28;20063;-68
2023/03/30 16:21:09;;;;;;;33.08;3.58;;;17.50;91.90;;;;;;5053384;28;20048;-70
2023/03/30 16:24:13;;;;;;;64.28;7.13;;;17.50;92.00;;;;;;5053014;28;20072;-69
2023/03/30 16:27:18;;;;;;;52.40;6.55;;;17.50;92.10;;;;;;5053875;28;20047;-68
2023/03/30 16:30:32;;;;;;;69.28;6.25;;;17.50;92.30;;;;;;5053260;28;20067;-69
2023/03/30 16:33:40;;;;;;;29.55;4.22;;;17.40;92.20;;;;;;5053896;28;20047;-69
2023/03/30 16:36:46;;;;;;;26.67;3.72;;;17.30;92.40;;;;;;5053471;28;20044;-68
2023/03/30 16:39:50;;;;;;;28.92;3.40;;;17.30;92.60;;;;;;5053346;28;20044;-69
2023/03/30 16:42:54;;;;;;;23.65;3.38;;;17.20;92.60;;;;;;5053649;28;20064;-70